Time;durP1;ratioP1;P1;durP2;ratioP2;P2;SDS_P1;SDS_P2;PMS_P1;PMS_P2;Temp;Humidity;BMP_temperature;BMP_pressure;BME280_temperature;BME280_humidity;BME280_pressure;Samples;Min_cycle;Max_cycle;Signal;HPM_P1;HPM_P2
2024/04/03 00:03:39;;;;;;;59.30;25.77;;;;;;;11.66;72.06;94693.28;10426204;28;20279;-77
2024/04/03 00:08:39;;;;;;;87.60;30.23;;;;;;;11.64;71.50;94695.47;10426691;28;20291;-76
2024/04/03 00:13:41;;;;;;;165.10;38.60;;;;;;;11.62;73.23;94697.59;10426485;28;20032;-81
2024/04/03 00:18:44;;;;;;;123.82;34.17;;;;;;;11.62;72.65;94711.06;10409331;28;20346;-78
2024/04/03 00:23:44;;;;;;;91.40;30.90;;;;;;;11.66;72.73;94708.63;10426272;28;20055;-80
2024/04/03 00:28:44;;;;;;;121.10;34.63;;;;;;;11.58;72.84;94715.41;10392756;28;20033;-75
2024/04/03 00:33:45;;;;;;;90.13;30.77;;;;;;;11.31;73.25;94726.63;10426414;28;20017;-79
2024/04/03 00:38:47;;;;;;;69.82;27.55;;;;;;;11.43;73.87;94719.03;10439031;28;20275;-76
2024/04/03 00:43:50;;;;;;;64.82;26.83;;;;;;;11.51;74.65;94723.00;10409634;28;20083;-76
2024/04/03 00:48:51;;;;;;;55.35;25.20;;;;;;;11.50;73.74;94719.50;10426009;28;20458;-77
2024/04/03 00:53:53;;;;;;;27.77;17.30;;;;;;;11.41;74.10;94723.84;10426370;28;20098;-79
2024/04/03 00:58:54;;;;;;;48.38;23.67;;;;;;;11.40;74.92;94720.38;10410505;28;20522;-76
2024/04/03 01:03:54;;;;;;;71.53;27.90;;;;;;;11.32;76.30;94720.97;10444480;28;20032;-77
2024/04/03 01:08:55;;;;;;;91.50;30.33;;;;;;;11.20;77.63;94717.78;10440020;28;20033;-72
2024/04/03 01:14:01;;;;;;;71.43;27.85;;;;;;;11.26;76.40;94725.56;10434432;28;20282;-76
2024/04/03 01:19:02;;;;;;;71.07;27.63;;;;;;;11.21;77.46;94722.09;10430838;28;20124;-75
2024/04/03 01:24:05;;;;;;;63.50;26.45;;;;;;;11.17;80.85;94729.13;10424736;28;20053;-80
2024/04/03 01:29:05;;;;;;;50.20;24.02;;;;;;;11.14;77.85;94729.66;10426267;28;20059;-75
2024/04/03 01:34:06;;;;;;;60.53;26.00;;;;;;;11.17;78.11;94731.81;10423265;28;20087;-81
2024/04/03 01:39:07;;;;;;;45.15;22.85;;;;;;;11.13;79.36;94725.38;10425498;28;21084;-80
2024/04/03 01:44:07;;;;;;;126.15;34.67;;;;;;;10.99;78.27;94734.03;10423371;28;20491;-76
2024/04/03 01:49:10;;;;;;;151.97;37.33;;;;;;;11.06;81.64;94741.78;10424978;28;20116;-81
2024/04/03 01:54:12;;;;;;;152.27;37.53;;;;;;;10.98;82.67;94739.69;10427814;28;20298;-82
2024/04/03 01:59:12;;;;;;;153.70;37.25;;;;;;;10.94;82.86;94736.75;10422124;28;20399;-80
2024/04/03 02:04:12;;;;;;;88.97;30.30;;;;;;;10.98;81.55;94737.00;10381026;28;20044;-75
2024/04/03 02:09:13;;;;;;;90.63;30.30;;;;;;;10.86;83.63;94735.41;10384923;28;20025;-75
2024/04/03 02:14:13;;;;;;;136.45;35.70;;;;;;;10.74;84.77;94749.19;10435716;28;20827;-80
2024/04/03 02:19:14;;;;;;;210.33;42.27;;;;;;;10.66;85.13;94746.22;10407237;28;20484;-74
2024/04/03 02:24:15;;;;;;;271.10;46.70;;;;;;;10.62;88.12;94740.63;10422910;28;20299;-78
2024/04/03 02:29:15;;;;;;;194.70;41.00;;;;;;;10.32;85.35;94746.81;10394318;28;20044;-76
2024/04/03 02:34:16;;;;;;;164.35;38.20;;;;;;;10.23;90.34;94738.50;10381903;28;20022;-73
2024/04/03 02:39:18;;;;;;;131.40;34.97;;;;;;;10.19;90.44;94740.13;10436954;28;20025;-79
2024/04/03 02:44:21;;;;;;;128.02;34.72;;;;;;;10.18;91.14;94743.88;10408315;28;20527;-79
2024/04/03 02:49:21;;;;;;;153.75;36.70;;;;;;;10.01;94.84;94753.00;10416161;28;20025;-80
2024/04/03 02:54:22;;;;;;;153.20;37.15;;;;;;;9.75;96.70;94763.75;10429822;28;20032;-75
2024/04/03 02:59:22;;;;;;;158.03;36.73;;;;;;;9.61;98.35;94762.63;10448927;28;20029;-79
2024/04/03 03:04:26;;;;;;;152.67;36.83;;;;;;;9.66;99.53;94781.44;10430342;28;20807;-81
2024/04/03 03:09:26;;;;;;;140.48;35.95;;;;;;;9.58;98.77;94774.69;10430430;28;20270;-77
2024/04/03 03:14:26;;;;;;;148.40;36.60;;;;;;;9.68;98.94;94779.28;10437343;28;20024;-75
2024/04/03 03:19:27;;;;;;;145.30;36.35;;;;;;;9.58;99.89;94790.00;10421066;28;20288;-75
2024/04/03 03:24:28;;;;;;;59.70;24.37;;;;;;;9.55;100.00;94794.03;10443686;28;20037;-74
2024/04/03 03:29:38;;;;;;;75.30;27.55;;;;;;;9.43;100.00;94798.03;10422047;28;20282;-80
2024/04/03 03:34:38;;;;;;;86.95;29.50;;;;;;;9.39;100.00;94793.19;10423317;28;20032;-79
2024/04/03 03:39:42;;;;;;;208.57;41.27;;;;;;;9.22;100.00;94792.59;10406563;28;20431;-82
2024/04/03 03:44:42;;;;;;;60.97;25.25;;;;;;;8.99;100.00;94809.94;10445685;28;20282;-80
2024/04/03 03:55:06;;;;;;;94.97;30.52;;;;;;;8.98;100.00;94817.16;10428854;28;20291;-80
2024/04/03 04:00:07;;;;;;;149.60;35.95;;;;;;;8.99;100.00;94820.66;10411721;28;20025;-77
2024/04/03 04:05:08;;;;;;;122.82;33.88;;;;;;;9.07;100.00;94826.31;10444435;28;20494;-78
2024/04/03 04:10:08;;;;;;;117.25;33.05;;;;;;;9.01;100.00;94832.72;10424106;28;20032;-78
2024/04/03 04:15:09;;;;;;;97.32;30.23;;;;;;;9.09;100.00;94830.63;10424836;28;20086;-78
2024/04/03 04:20:09;;;;;;;154.18;36.92;;;;;;;9.01;100.00;94846.13;10441951;28;20090;-78
2024/04/03 04:25:09;;;;;;;170.32;38.08;;;;;;;9.02;100.00;94838.91;10426769;28;20084;-77
2024/04/03 04:30:10;;;;;;;140.10;34.70;;;;;;;9.02;100.00;94831.66;10444535;28;20021;-78
2024/04/03 04:35:10;;;;;;;72.90;27.30;;;;;;;8.94;97.88;94836.72;10448114;28;20271;-78
2024/04/03 04:40:14;;;;;;;194.82;40.20;;;;;;;8.83;100.00;94852.75;10425805;28;20032;-77
2024/04/03 04:45:14;;;;;;;138.75;35.47;;;;;;;8.75;99.48;94855.06;10404769;28;20060;-82
2024/04/03 04:50:14;;;;;;;142.27;35.65;;;;;;;8.91;100.00;94859.47;10427502;28;20125;-82
2024/04/03 04:55:15;;;;;;;87.73;29.40;;;;;;;8.99;100.00;94864.34;10422004;28;22462;-77
2024/04/03 05:00:17;;;;;;;117.93;33.37;;;;;;;9.18;100.00;94861.22;10425858;28;20785;-81
2024/04/03 05:05:17;;;;;;;118.15;33.42;;;;;;;9.39;98.70;94873.66;10424312;28;20263;-79
2024/04/03 05:10:17;;;;;;;114.40;33.20;;;;;;;9.78;92.41;94864.38;10443157;28;20028;-83
2024/04/03 05:15:23;;;;;;;69.28;27.10;;;;;;;10.08;89.61;94877.06;10424672;28;20037;-80
2024/04/03 05:20:23;;;;;;;114.07;32.83;;;;;;;10.63;89.59;94873.91;10425871;28;20044;-78
2024/04/03 05:25:24;;;;;;;28.65;17.25;;;;;;;11.19;84.58;94866.81;10419809;28;20042;-78
2024/04/03 05:30:24;;;;;;;139.88;35.80;;;;;;;11.91;74.03;94858.44;10407516;28;20024;-81
2024/04/03 05:35:25;;;;;;;110.95;33.42;;;;;;;12.32;67.91;94858.19;10423441;28;20022;-77
2024/04/03 05:40:25;;;;;;;130.50;35.72;;;;;;;13.14;64.42;94862.88;10398305;28;20235;-76
2024/04/03 05:45:33;;;;;;;187.43;40.97;;;;;;;13.86;64.19;94861.25;10441720;28;20515;-81
2024/04/03 05:50:33;;;;;;;175.02;40.60;;;;;;;14.59;61.11;94852.91;10423955;28;20267;-76
2024/04/03 05:55:34;;;;;;;126.45;35.53;;;;;;;15.02;58.80;94852.72;10424188;28;20025;-80
2024/04/03 06:00:34;;;;;;;117.10;34.63;;;;;;;15.91;53.42;94856.19;10407398;28;20021;-79
2024/04/03 06:05:36;;;;;;;110.03;32.77;;;;;;;16.80;52.59;94859.31;10441178;28;20429;-77
2024/04/03 06:10:38;;;;;;;73.47;29.40;;;;;;;17.41;47.46;94854.22;10421472;28;20639;-80
2024/04/03 06:15:39;;;;;;;52.65;25.00;;;;;;;17.14;48.22;94859.84;10407537;28;20476;-80
2024/04/03 06:20:40;;;;;;;68.22;28.63;;;;;;;17.04;47.11;94863.63;10421279;28;20380;-82
2024/04/03 06:25:40;;;;;;;66.75;27.95;;;;;;;17.09;48.08;94868.91;10421072;28;20128;-76
2024/04/03 06:30:41;;;;;;;47.60;23.77;;;;;;;18.12;45.40;94866.09;10416566;28;20494;-76
2024/04/03 06:35:41;;;;;;;42.25;23.13;;;;;;;17.47;46.61;94864.94;10421425;28;20025;-77
2024/04/03 06:40:42;;;;;;;50.77;22.17;;;;;;;18.99;43.60;94867.22;10421694;28;20052;-76
2024/04/03 06:45:43;;;;;;;68.22;27.73;;;;;;;19.85;40.94;94862.63;10436809;28;20949;-77
2024/04/03 06:50:50;;;;;;;70.00;29.48;;;;;;;19.66;41.01;94857.56;10421920;28;20040;-76
2024/04/03 06:55:55;;;;;;;;;;;;;;;20.31;39.98;94871.03;10421987;28;20238;-74
2024/04/03 07:00:55;;;;;;;85.97;30.60;;;;;;;20.39;39.29;94872.09;10439863;28;19919;-75
2024/04/03 07:05:56;;;;;;;125.87;38.20;;;;;;;21.09;37.96;94874.25;10405636;28;20032;-77
2024/04/03 07:10:56;;;;;;;120.57;37.95;;;;;;;22.38;36.69;94865.94;10441313;28;20287;-83
2024/04/03 07:15:56;;;;;;;127.27;38.57;;;;;;;22.70;35.29;94862.22;10421528;28;20025;-75
2024/04/03 07:20:58;;;;;;;139.33;40.53;;;;;;;24.17;31.85;94858.16;10421562;28;20325;-77
2024/04/03 07:25:59;;;;;;;136.15;40.00;;;;;;;24.68;31.51;94857.31;10438647;28;20044;-77
2024/04/03 07:30:59;;;;;;;124.80;38.65;;;;;;;25.55;31.38;94855.06;10421509;28;20043;-76
2024/04/03 07:36:06;;;;;;;56.13;27.00;;;;;;;26.15;29.04;94853.69;10446576;28;20071;-81
2024/04/03 07:41:06;;;;;;;90.20;33.97;;;;;;;26.94;27.86;94848.47;10427894;28;20023;-76
2024/04/03 07:46:07;;;;;;;79.80;31.87;;;;;;;26.17;29.80;94847.81;10428027;28;20031;-76
2024/04/03 07:51:07;;;;;;;84.05;33.53;;;;;;;27.09;26.42;94839.19;10428544;28;20031;-81
2024/04/03 07:56:11;;;;;;;64.93;27.88;;;;;;;28.02;25.88;94827.47;10427945;28;20355;-80
2024/04/03 08:01:11;;;;;;;85.28;29.42;;;;;;;28.74;24.56;94833.44;10445323;28;20116;-79
2024/04/03 08:06:12;;;;;;;58.50;28.00;;;;;;;29.14;24.74;94825.28;10445216;28;20416;-75
2024/04/03 08:11:12;;;;;;;85.67;33.70;;;;;;;28.30;25.09;94831.59;10443704;28;20675;-76
2024/04/03 08:16:13;;;;;;;110.53;38.10;;;;;;;28.39;25.12;94823.75;10426432;28;20275;-77
2024/04/03 08:21:13;;;;;;;142.70;42.33;;;;;;;28.88;24.98;94820.84;10430017;28;20275;-80
2024/04/03 08:26:14;;;;;;;134.80;41.22;;;;;;;29.99;24.76;94832.16;10428089;28;20319;-80
2024/04/03 08:31:16;;;;;;;109.15;37.42;;;;;;;30.38;22.94;94822.22;10451397;28;20547;-77
2024/04/03 08:36:17;;;;;;;111.55;38.00;;;;;;;30.06;22.61;94831.38;10425926;28;20735;-76
2024/04/03 08:41:17;;;;;;;116.83;39.33;;;;;;;29.03;22.63;94822.47;10425838;28;20029;-79
2024/04/03 08:46:19;;;;;;;71.70;30.05;;;;;;;28.20;24.03;94832.31;10427523;28;20033;-77
2024/04/03 08:51:21;;;;;;;102.55;36.85;;;;;;;27.57;25.83;94812.88;10430292;28;20083;-76
2024/04/03 08:56:22;;;;;;;43.25;23.40;;;;;;;26.59;25.93;94830.28;10424836;28;20526;-77
2024/04/03 09:01:22;;;;;;;61.90;27.90;;;;;;;23.97;28.20;94824.34;10424516;28;20093;-76
2024/04/03 09:06:23;;;;;;;124.87;39.30;;;;;;;23.42;29.64;94815.97;10443575;28;20577;-79
2024/04/03 09:11:24;;;;;;;177.82;44.45;;;;;;;24.14;29.17;94809.41;10442143;28;20670;-76
2024/04/03 09:16:25;;;;;;;198.35;46.78;;;;;;;26.91;26.19;94813.38;10424429;28;20035;-76
2024/04/03 09:21:29;;;;;;;141.45;41.45;;;;;;;25.91;26.15;94830.06;10411172;28;20116;-75
2024/04/03 09:26:29;;;;;;;210.55;48.10;;;;;;;23.44;27.00;94830.09;10423546;28;20053;-78
2024/04/03 09:31:30;;;;;;;194.13;46.10;;;;;;;23.14;30.70;94822.31;10423249;28;20472;-82
2024/04/03 09:36:32;;;;;;;234.25;49.90;;;;;;;22.76;32.09;94818.91;10444027;28;20287;-83
2024/04/03 09:41:33;;;;;;;125.78;35.97;;;;;;;22.83;29.30;94818.31;10441427;28;20033;-79
2024/04/03 09:46:55;;;;;;;30.13;15.27;;;;;;;22.80;30.40;94817.06;10409689;28;20387;-76
2024/04/03 09:51:55;;;;;;;391.80;63.85;;;;;;;23.63;28.35;94802.75;10425810;28;20032;-79
2024/04/03 09:56:56;;;;;;;400.83;64.80;;;;;;;24.14;28.90;94807.50;10424334;28;20020;-81
2024/04/03 10:01:56;;;;;;;419.60;66.80;;;;;;;25.23;25.71;94796.72;10425919;28;20028;-83
2024/04/03 10:06:58;;;;;;;341.02;61.17;;;;;;;28.24;22.51;94784.16;10425618;28;20079;-83
2024/04/03 10:11:59;;;;;;;379.65;66.07;;;;;;;30.42;20.71;94775.84;10421515;28;20032;-76
2024/04/03 10:16:59;;;;;;;267.42;56.22;;;;;;;32.67;19.44;94754.38;10440234;28;20028;-81
2024/04/03 10:22:02;;;;;;;185.20;49.27;;;;;;;33.84;18.90;94749.56;10444030;28;20514;-81
2024/04/03 10:27:03;;;;;;;171.55;47.95;;;;;;;33.95;17.45;94754.16;10407656;28;20049;-83
2024/04/03 10:32:04;;;;;;;142.48;44.50;;;;;;;34.13;17.94;94746.25;10439983;28;20032;-77
2024/04/03 10:37:04;;;;;;;131.60;42.75;;;;;;;34.90;17.45;94754.78;10422477;28;20065;-77
2024/04/03 10:42:07;;;;;;;113.03;39.45;;;;;;;34.68;17.56;94749.63;10421241;28;20021;-82
2024/04/03 10:47:09;;;;;;;268.38;58.28;;;;;;;34.42;18.34;94745.75;10425702;28;20017;-78
2024/04/03 10:52:10;;;;;;;264.98;57.50;;;;;;;32.86;17.93;94747.41;10424207;28;20043;-73
2024/04/03 10:57:12;;;;;;;150.95;45.53;;;;;;;31.79;18.16;94738.22;10433127;28;20036;-81
2024/04/03 11:02:17;;;;;;;110.78;39.58;;;;;;;29.80;18.99;94744.66;10435112;28;20028;-84
2024/04/03 11:07:17;;;;;;;347.90;63.83;;;;;;;27.16;21.72;94747.41;10451182;28;20449;-78
2024/04/03 11:12:18;;;;;;;430.73;70.40;;;;;;;26.71;22.08;94719.78;10421113;28;20074;-76
2024/04/03 11:17:18;;;;;;;460.45;71.90;;;;;;;25.27;23.97;94705.97;10413580;28;20271;-81
2024/04/03 11:22:19;;;;;;;378.40;63.77;;;;;;;25.27;25.04;94711.47;10429150;28;20503;-77
2024/04/03 11:27:19;;;;;;;404.03;65.93;;;;;;;25.05;24.96;94708.38;10400654;28;20041;-76
2024/04/03 11:32:19;;;;;;;439.50;68.90;;;;;;;24.59;26.03;94698.13;10416485;28;20035;-81
2024/04/03 11:37:20;;;;;;;416.77;66.80;;;;;;;24.49;24.28;94673.97;10452902;28;20036;-75
2024/04/03 11:42:20;;;;;;;417.07;66.40;;;;;;;24.14;24.64;94672.13;10429364;28;20025;-76
2024/04/03 11:47:21;;;;;;;431.77;67.28;;;;;;;23.56;27.17;94679.13;10432129;28;20264;-81
2024/04/03 11:52:21;;;;;;;415.93;65.73;;;;;;;22.98;28.07;94664.06;10428606;28;20035;-81
2024/04/03 11:57:22;;;;;;;408.92;65.13;;;;;;;23.04;26.35;94653.63;10428328;28;20300;-82
2024/04/03 12:02:23;;;;;;;385.10;62.78;;;;;;;23.06;26.81;94659.53;10421867;28;20037;-76
2024/04/03 12:07:23;;;;;;;416.80;65.45;;;;;;;22.55;26.59;94662.19;10449587;28;20017;-83
2024/04/03 12:12:24;;;;;;;413.43;64.73;;;;;;;22.68;26.94;94663.72;10413047;28;20033;-80
2024/04/03 12:17:25;;;;;;;416.08;64.95;;;;;;;21.75;26.76;94667.41;10429291;28;20296;-77
2024/04/03 12:22:25;;;;;;;452.20;67.88;;;;;;;21.72;27.02;94659.91;10414395;28;20059;-79
2024/04/03 12:27:27;;;;;;;383.50;61.90;;;;;;;22.08;26.89;94658.19;10410483;28;20419;-79
2024/04/03 12:32:27;;;;;;;373.40;61.28;;;;;;;22.16;28.36;94651.75;10427571;28;20038;-77
2024/04/03 12:37:27;;;;;;;399.20;63.33;;;;;;;22.45;26.75;94647.88;10446501;28;20055;-83
2024/04/03 12:42:29;;;;;;;370.57;60.77;;;;;;;21.75;27.18;94640.84;10430608;28;20765;-84
2024/04/03 12:47:29;;;;;;;450.45;67.63;;;;;;;22.07;27.97;94635.47;10426786;28;20272;-80
2024/04/03 12:52:34;;;;;;;455.17;68.07;;;;;;;22.05;27.24;94628.75;10415546;28;20033;-86
2024/04/03 12:57:35;;;;;;;446.83;67.00;;;;;;;21.90;28.92;94611.94;10409977;28;21010;-77
2024/04/03 13:02:36;;;;;;;392.13;62.50;;;;;;;21.60;30.86;94611.50;10425053;28;20029;-76
2024/04/03 13:07:36;;;;;;;373.40;60.95;;;;;;;21.79;27.58;94592.50;10426306;28;20075;-78
2024/04/03 13:12:37;;;;;;;338.20;57.90;;;;;;;21.93;28.35;94583.09;10425411;28;20163;-79
2024/04/03 13:17:38;;;;;;;211.70;46.70;;;;;;;21.98;28.42;94577.38;10428090;28;20310;-81
2024/04/03 13:22:41;;;;;;;183.90;44.35;;;;;;;21.91;27.85;94574.44;10429747;28;20357;-81
2024/04/03 13:27:41;;;;;;;95.38;33.35;;;;;;;21.90;28.94;94561.91;10443602;28;20464;-77
2024/04/03 13:32:41;;;;;;;71.03;30.63;;;;;;;21.63;29.17;94556.13;10422736;28;20024;-79
2024/04/03 13:37:42;;;;;;;70.77;30.07;;;;;;;21.64;29.04;94552.22;10424206;28;20291;-82
2024/04/03 13:42:43;;;;;;;77.00;31.42;;;;;;;21.40;28.98;94553.09;10458273;28;20944;-80
2024/04/03 13:47:44;;;;;;;82.80;32.38;;;;;;;21.31;28.68;94550.50;10443651;28;20021;-77
2024/04/03 13:52:44;;;;;;;88.00;33.00;;;;;;;21.33;29.74;94564.59;10423780;28;20507;-77
2024/04/03 13:57:45;;;;;;;91.50;33.75;;;;;;;21.25;28.57;94565.53;10424210;28;20378;-78
2024/04/03 14:02:45;;;;;;;90.97;33.63;;;;;;;21.21;28.54;94567.38;10450253;28;20029;-77
2024/04/03 14:07:45;;;;;;;90.53;33.53;;;;;;;21.19;29.38;94564.97;10434433;28;20056;-81
2024/04/03 14:12:49;;;;;;;298.27;54.15;;;;;;;21.15;28.71;94561.34;10422353;28;20207;-77
2024/04/03 14:17:49;;;;;;;412.30;63.78;;;;;;;21.08;29.36;94566.59;10408770;28;20482;-78
2024/04/03 14:22:52;;;;;;;430.13;64.70;;;;;;;21.03;29.20;94556.72;10446568;28;20045;-79
2024/04/03 14:27:57;;;;;;;397.00;62.08;;;;;;;21.02;29.27;94552.38;10428976;28;20527;-76
2024/04/03 14:32:59;;;;;;;367.77;59.50;;;;;;;20.85;30.20;94549.88;10371433;28;20055;-77
2024/04/03 14:38:02;;;;;;;344.67;57.83;;;;;;;20.54;29.65;94538.41;10395005;28;20068;-77
2024/04/03 14:43:05;;;;;;;197.23;44.75;;;;;;;20.39;30.66;94548.06;10421896;28;20028;-79
2024/04/03 14:48:07;;;;;;;157.23;41.13;;;;;;;20.21;31.12;94554.88;10417767;28;20021;-75
2024/04/03 14:53:08;;;;;;;120.07;36.72;;;;;;;20.25;29.83;94545.66;10412281;28;20024;-76
2024/04/03 14:58:08;;;;;;;129.23;38.20;;;;;;;20.30;30.82;94553.63;10409912;28;20024;-77
2024/04/03 15:03:13;;;;;;;123.85;37.33;;;;;;;20.23;30.97;94547.91;10427192;28;20526;-80
2024/04/03 15:08:13;;;;;;;94.07;33.53;;;;;;;20.12;30.71;94554.94;10378513;28;20101;-81
2024/04/03 15:13:14;;;;;;;94.85;32.97;;;;;;;19.95;30.84;94558.66;10392924;28;20483;-76
2024/04/03 15:18:18;;;;;;;37.67;18.30;;;;;;;19.90;32.19;94554.25;10424608;28;20139;-79
2024/04/03 15:23:19;;;;;;;35.38;17.58;;;;;;;19.68;31.47;94569.03;10428973;28;20115;-77
2024/04/03 15:28:19;;;;;;;71.37;28.43;;;;;;;19.61;33.48;94569.56;10431017;28;20082;-81
2024/04/03 15:33:20;;;;;;;118.90;36.72;;;;;;;19.42;32.05;94570.06;10409113;28;20272;-76
2024/04/03 15:38:20;;;;;;;106.97;35.13;;;;;;;19.37;32.04;94577.59;10407384;28;20821;-81
2024/04/03 15:43:22;;;;;;;113.82;35.95;;;;;;;19.18;32.65;94578.88;10402656;28;20275;-76
2024/04/03 15:48:22;;;;;;;131.48;38.13;;;;;;;19.26;32.95;94580.75;10422108;28;20959;-79
2024/04/03 15:53:24;;;;;;;118.32;36.50;;;;;;;19.16;32.08;94585.78;10382443;28;20090;-77
2024/04/03 15:58:24;;;;;;;123.85;37.53;;;;;;;18.99;32.20;94579.34;10419136;28;20411;-75
2024/04/03 16:03:25;;;;;;;177.37;42.47;;;;;;;18.86;32.51;94586.59;10403931;28;20116;-80
2024/04/03 16:08:25;;;;;;;192.65;43.92;;;;;;;18.78;33.22;94590.97;10401743;28;20279;-81
2024/04/03 16:13:25;;;;;;;162.60;41.17;;;;;;;18.46;32.86;94595.13;10397067;28;20467;-78
2024/04/03 16:18:26;;;;;;;110.33;33.60;;;;;;;18.37;32.94;94599.81;10420592;28;20447;-75
2024/04/03 16:23:27;;;;;;;48.10;24.43;;;;;;;18.25;33.16;94611.34;10421040;28;20103;-77
2024/04/03 16:28:27;;;;;;;50.40;24.60;;;;;;;18.04;33.53;94605.81;10398368;28;20268;-82
2024/04/03 16:33:28;;;;;;;43.53;22.52;;;;;;;17.96;33.62;94612.88;10395799;28;20071;-78
2024/04/03 16:38:28;;;;;;;79.85;27.88;;;;;;;17.92;33.92;94614.66;10377166;28;20211;-78
2024/04/03 16:43:29;;;;;;;33.63;18.47;;;;;;;17.80;33.80;94620.69;10397191;28;20025;-76
2024/04/03 16:48:29;;;;;;;24.37;13.67;;;;;;;17.79;33.59;94623.75;10427222;28;20645;-76
2024/04/03 16:53:29;;;;;;;19.42;14.60;;;;;;;17.74;33.82;94622.00;10402029;28;20357;-76
2024/04/03 16:58:30;;;;;;;22.00;16.87;;;;;;;17.64;34.19;94622.31;10395056;28;20029;-75
2024/04/03 17:03:30;;;;;;;14.03;12.47;;;;;;;17.53;34.07;94628.06;10414926;28;20264;-78
2024/04/03 17:08:35;;;;;;;25.05;16.00;;;;;;;17.35;34.35;94629.97;10408371;28;20271;-75
2024/04/03 17:13:36;;;;;;;56.22;25.45;;;;;;;17.30;35.04;94640.22;10399209;28;20064;-76
2024/04/03 17:18:37;;;;;;;65.85;27.25;;;;;;;17.21;36.10;94646.44;10402367;28;20407;-78
2024/04/03 17:23:39;;;;;;;67.53;27.48;;;;;;;17.13;36.18;94652.63;10383988;28;20265;-77
2024/04/03 17:28:39;;;;;;;74.60;28.98;;;;;;;17.09;37.30;94665.25;10383391;28;20438;-78
2024/04/03 17:33:40;;;;;;;71.57;29.07;;;;;;;17.06;38.17;94671.31;10400495;28;20033;-78
2024/04/03 17:38:40;;;;;;;48.00;24.27;;;;;;;17.04;37.92;94673.56;10403467;28;20310;-81
2024/04/03 17:43:41;;;;;;;17.70;10.05;;;;;;;17.06;38.86;94680.25;10401917;28;20041;-74
2024/04/03 17:48:41;;;;;;;12.50;1.00;;;;;;;16.89;38.97;94675.56;10397258;28;20126;-80
2024/04/03 17:53:41;;;;;;;6.25;0.22;;;;;;;16.44;41.98;94688.44;10402272;28;20114;-73
2024/04/03 17:58:42;;;;;;;0.30;0.00;;;;;;;16.45;43.37;94693.59;10400546;28;20075;-74
2024/04/03 18:03:42;;;;;;;7.50;0.10;;;;;;;16.35;45.02;94697.34;10404393;28;20272;-75
2024/04/03 18:08:43;;;;;;;8.50;0.30;;;;;;;16.06;43.42;94711.34;10394115;28;20778;-75
2024/04/03 18:13:43;;;;;;;0.80;0.03;;;;;;;15.60;44.27;94705.09;10406135;28;20414;-76
2024/04/03 18:18:47;;;;;;;1.85;0.10;;;;;;;15.50;44.12;94705.28;10403446;28;20018;-75
2024/04/03 18:23:48;;;;;;;13.45;1.23;;;;;;;15.39;44.83;94715.53;10400698;28;20487;-75
2024/04/03 18:28:50;;;;;;;0.43;0.00;;;;;;;15.26;44.85;94705.56;10400077;28;20025;-81
2024/04/03 18:33:50;;;;;;;19.17;7.03;;;;;;;15.26;45.71;94709.06;10400636;28;20577;-76
2024/04/03 18:38:53;;;;;;;1.27;1.03;;;;;;;15.25;45.32;94706.66;10405285;28;20028;-74
2024/04/03 18:43:53;;;;;;;1.52;0.03;;;;;;;15.06;46.26;94704.88;10405344;28;20272;-77
2024/04/03 18:48:54;;;;;;;0.17;0.00;;;;;;;15.04;45.46;94699.78;10424021;28;20036;-80
2024/04/03 18:53:54;;;;;;;0.45;0.00;;;;;;;15.10;44.26;94700.47;10397561;28;20033;-74
2024/04/03 18:58:55;;;;;;;3.25;0.00;;;;;;;15.19;43.48;94693.22;10377670;28;20510;-74
2024/04/03 19:03:57;;;;;;;2.40;2.23;;;;;;;15.19;43.43;94685.09;10377948;28;20476;-76
2024/04/03 19:08:58;;;;;;;2.63;1.65;;;;;;;15.21;42.50;94680.19;10413014;28;20288;-74
2024/04/03 19:13:58;;;;;;;2.30;0.00;;;;;;;15.24;41.00;94678.78;10396599;28;20043;-82
2024/04/03 19:18:59;;;;;;;2.58;0.00;;;;;;;15.30;40.58;94684.91;10400593;28;20040;-77
2024/04/03 19:23:59;;;;;;;2.23;1.50;;;;;;;15.33;39.43;94678.88;10397131;28;20045;-77
2024/04/03 19:28:59;;;;;;;3.10;0.08;;;;;;;15.28;39.81;94676.25;10405581;28;20291;-80
2024/04/03 19:34:05;;;;;;;1.48;0.00;;;;;;;15.31;40.37;94676.47;10403974;28;20080;-81
2024/04/03 19:39:21;;;;;;;2.53;0.60;;;;;;;15.45;39.93;94668.31;10412263;28;20028;-74
2024/04/03 19:44:21;;;;;;;3.42;0.38;;;;;;;15.57;40.64;94666.97;10401602;28;20381;-75
2024/04/03 19:49:22;;;;;;;2.10;0.10;;;;;;;15.61;40.50;94667.94;10406909;28;20021;-75
2024/04/03 19:54:22;;;;;;;1.57;0.20;;;;;;;15.59;42.08;94656.63;10394152;28;20299;-74
2024/04/03 19:59:22;;;;;;;3.72;0.00;;;;;;;15.58;42.08;94657.72;10383504;28;20290;-73
2024/04/03 20:04:23;;;;;;;0.10;0.10;;;;;;;15.56;43.05;94658.03;10396802;28;20096;-77
2024/04/03 20:09:23;;;;;;;2.75;0.10;;;;;;;15.50;43.91;94654.66;10422667;28;20047;-78
2024/04/03 20:14:23;;;;;;;2.90;0.30;;;;;;;15.16;44.13;94652.44;10437490;28;20037;-74
2024/04/03 20:19:25;;;;;;;0.10;0.00;;;;;;;14.82;43.56;94657.19;10438035;28;20307;-74
2024/04/03 20:24:25;;;;;;;0.00;0.00;;;;;;;14.63;44.27;94645.66;10462486;28;20698;-82
2024/04/03 20:29:26;;;;;;;1.00;0.00;;;;;;;14.36;45.46;94658.84;10429972;28;20036;-83
2024/04/03 20:34:26;;;;;;;1.55;0.00;;;;;;;14.35;47.80;94651.03;10430025;28;20298;-83
2024/04/03 20:39:27;;;;;;;2.03;0.05;;;;;;;14.28;47.36;94645.22;10425610;28;20029;-79
2024/04/03 20:44:28;;;;;;;1.53;0.00;;;;;;;14.31;47.86;94661.63;10444019;28;20047;-81
2024/04/03 20:49:29;;;;;;;0.13;0.00;;;;;;;14.06;48.92;94648.59;10409673;28;20283;-84
2024/04/03 20:54:29;;;;;;;3.10;0.00;;;;;;;14.05;49.10;94647.78;10428934;28;20021;-83
2024/04/03 20:59:30;;;;;;;0.15;0.00;;;;;;;13.89;49.17;94633.72;10412543;28;20033;-80
2024/04/03 21:04:32;;;;;;;0.00;0.00;;;;;;;13.66;49.94;94625.47;10410860;28;20029;-83
2024/04/03 21:09:33;;;;;;;4.55;3.00;;;;;;;13.43;50.52;94624.47;10412208;28;20275;-85
2024/04/03 21:14:33;;;;;;;0.90;0.00;;;;;;;13.26;51.53;94633.06;10428157;28;20041;-83
2024/04/03 21:19:34;;;;;;;0.00;0.00;;;;;;;13.19;51.72;94637.25;10427534;28;20385;-79
2024/04/03 21:24:34;;;;;;;3.85;2.75;;;;;;;13.18;51.97;94639.13;10409072;28;20530;-82
2024/04/03 21:29:34;;;;;;;0.00;0.00;;;;;;;13.16;51.21;94633.22;10424634;28;20021;-76
2024/04/03 21:34:35;;;;;;;0.00;0.00;;;;;;;13.16;51.17;94636.72;10443860;28;20267;-80
2024/04/03 21:39:35;;;;;;;3.40;2.30;;;;;;;13.27;51.46;94644.66;10424510;28;20287;-78
2024/04/03 21:44:36;;;;;;;3.92;3.50;;;;;;;13.41;52.27;94634.78;10394382;28;20026;-85
2024/04/03 21:49:38;;;;;;;2.00;1.40;;;;;;;13.54;52.49;94622.41;10413993;28;20024;-76
2024/04/03 21:54:40;;;;;;;0.10;0.00;;;;;;;13.54;50.63;94630.53;10427026;28;20348;-81
2024/04/03 21:59:42;;;;;;;0.15;0.00;;;;;;;13.48;50.52;94632.50;10411566;28;20036;-75
2024/04/03 22:04:44;;;;;;;0.00;0.00;;;;;;;13.45;51.32;94634.97;10423360;28;20033;-78
2024/04/03 22:09:44;;;;;;;0.00;0.00;;;;;;;13.54;51.49;94625.13;10427062;28;20040;-83
2024/04/03 22:14:44;;;;;;;2.87;0.00;;;;;;;13.58;52.65;94628.06;10411421;28;20032;-80
2024/04/03 22:19:46;;;;;;;0.63;0.00;;;;;;;13.60;55.30;94628.53;10427538;28;20657;-84
2024/04/03 22:24:46;;;;;;;0.10;0.00;;;;;;;13.62;53.17;94629.06;10387019;28;20052;-84
2024/04/03 22:29:47;;;;;;;2.17;1.65;;;;;;;13.53;54.22;94628.91;10405228;28;20389;-78
2024/04/03 22:34:49;;;;;;;0.05;0.00;;;;;;;13.40;53.42;94625.06;10441899;28;20055;-80
2024/04/03 22:39:51;;;;;;;0.20;0.00;;;;;;;13.39;51.30;94631.56;10415365;28;20462;-74
2024/04/03 22:44:52;;;;;;;1.45;1.25;;;;;;;13.23;51.44;94624.75;10413687;28;20046;-80
2024/04/03 22:49:53;;;;;;;3.65;3.30;;;;;;;13.03;51.83;94610.44;10432454;28;20033;-79
2024/04/03 22:54:53;;;;;;;0.00;0.00;;;;;;;12.70;53.11;94621.16;10424512;28;20124;-78